createdAt,value
2022-09-15T00:01:16.518Z,97816.66
2022-09-15T00:03:43.971Z,97812.47
2022-09-15T00:06:13.239Z,97815.97
2022-09-15T00:08:41.646Z,97806.53
2022-09-15T00:13:46.546Z,97798.09
2022-09-15T00:16:15.756Z,97798.44
2022-09-15T00:18:45.959Z,97798.56
2022-09-15T00:21:20.915Z,97808.03
2022-09-15T00:23:49.974Z,97808.72
2022-09-15T00:26:24.667Z,97804.75
2022-09-15T00:28:53.233Z,97796.81
2022-09-15T00:31:25.427Z,97804.56
2022-09-15T00:33:59.187Z,97799.63
2022-09-15T00:36:51.694Z,97802.75
2022-09-15T00:39:19.359Z,97798.97
2022-09-15T00:41:49.034Z,97804.25
2022-09-15T00:47:17.790Z,97793.81
2022-09-15T00:49:50.720Z,97797.97
2022-09-15T00:58:10.085Z,97795.13
2022-09-15T01:00:46.126Z,97795.97
2022-09-15T01:03:14.187Z,97793.81
2022-09-15T01:05:50.852Z,97798.59
2022-09-15T01:08:35.231Z,97804.41
2022-09-15T01:11:03.258Z,97797.28
2022-09-15T01:13:30.724Z,97792.16
2022-09-15T01:20:01.834Z,97796.78
2022-09-15T01:31:03.522Z,97783.06
2022-09-15T01:34:06.237Z,97784.22
2022-09-15T01:36:51.479Z,97773.47
2022-09-15T01:39:30.012Z,97777.59
2022-09-15T01:42:16.166Z,97770.13
2022-09-15T01:44:58.955Z,97774.44
2022-09-15T01:47:30.527Z,97771.63
2022-09-15T01:50:10.520Z,97772.63
2022-09-15T01:52:45.464Z,97771.25
2022-09-15T01:55:27.042Z,97781.22
2022-09-15T01:57:54.371Z,97778.91
2022-09-15T02:00:21.840Z,97773.22
2022-09-15T02:03:00.219Z,97780.53
2022-09-15T02:05:45.535Z,97779.22
2022-09-15T02:08:28.474Z,97780.34
2022-09-15T02:11:19.467Z,97773.91
2022-09-15T02:14:22.274Z,97777.84
2022-09-15T02:16:54.303Z,97773.34
2022-09-15T02:19:36.562Z,97772.22
2022-09-15T02:22:31.263Z,97772.75
2022-09-15T02:27:51.440Z,97772.91
2022-09-15T02:30:21.254Z,97769.41
2022-09-15T02:32:58.556Z,97769.19
2022-09-15T02:35:33.356Z,97761.88
2022-09-15T02:38:03.440Z,97762.94
2022-09-15T02:40:32.632Z,97762.34
2022-09-15T02:43:03.675Z,97768.16
2022-09-15T02:45:32.213Z,97769.88
2022-09-15T02:48:00.228Z,97770.59
2022-09-15T02:50:27.538Z,97775.47
2022-09-15T02:52:56.214Z,97762.69
2022-09-15T02:55:28.991Z,97769.78
2022-09-15T02:57:58.507Z,97765.09
2022-09-15T03:00:28.367Z,97758.41
2022-09-15T03:02:56.706Z,97768.13
2022-09-15T03:05:29.925Z,97778.41
2022-09-15T03:07:57.899Z,97768.03
2022-09-15T03:10:26.574Z,97765.28
2022-09-15T03:12:55.446Z,97770.28
2022-09-15T03:15:26.638Z,97763.31
2022-09-15T03:17:55.228Z,97760.38
2022-09-15T03:20:30.261Z,97757.16
2022-09-15T03:22:57.972Z,97759.25
2022-09-15T03:25:27.019Z,97755.97
2022-09-15T03:27:54.457Z,97764.22
2022-09-15T03:30:21.862Z,97762.75
2022-09-15T03:32:49.583Z,97762.72
2022-09-15T03:35:17.198Z,97767.34
2022-09-15T03:37:44.618Z,97767.16
2022-09-15T03:40:11.990Z,97772.63
2022-09-15T03:42:39.409Z,97764.34
2022-09-15T03:45:07.700Z,97776.06
2022-09-15T03:47:35.223Z,97774.72
2022-09-15T03:50:02.516Z,97767.34
2022-09-15T03:52:32.125Z,97771.41
2022-09-15T03:54:59.787Z,97764.75
2022-09-15T03:57:27.108Z,97767.97
2022-09-15T03:59:54.462Z,97768.94
2022-09-15T04:02:22.198Z,97779.75
2022-09-15T04:04:49.781Z,97778.53
2022-09-15T04:07:17.121Z,97771.94
2022-09-15T04:09:44.571Z,97768.81
2022-09-15T04:12:11.799Z,97766.75
2022-09-15T04:14:39.191Z,97765.31
2022-09-15T04:17:06.566Z,97765.06
2022-09-15T04:19:33.913Z,97765.22
2022-09-15T04:22:01.171Z,97763.75
2022-09-15T04:24:28.579Z,97758.56
2022-09-15T04:26:55.835Z,97756.69
2022-09-15T04:29:23.369Z,97764.16
2022-09-15T04:31:52.951Z,97759.88
2022-09-15T04:34:20.288Z,97766.72
2022-09-15T04:36:48.397Z,97774.47
2022-09-15T04:39:15.882Z,97760.16
2022-09-15T04:41:43.550Z,97755.75
2022-09-15T04:44:10.924Z,97750.63
2022-09-15T04:46:38.329Z,97754.69
2022-09-15T04:49:05.790Z,97756.25
2022-09-15T04:51:36.162Z,97770.56
2022-09-15T04:54:03.915Z,97756.28
2022-09-15T04:56:31.356Z,97762.78
2022-09-15T04:59:03.897Z,97765.13
2022-09-15T05:01:35.540Z,97767.31
2022-09-15T05:04:04.953Z,97767.06
2022-09-15T05:06:35.023Z,97770.13
2022-09-15T05:09:10.268Z,97768.72
2022-09-15T05:11:38.720Z,97773.09
2022-09-15T05:14:07.009Z,97774.31
2022-09-15T05:16:34.288Z,97776.53
2022-09-15T05:19:04.672Z,97785.22
2022-09-15T05:21:33.026Z,97779.66
2022-09-15T05:24:00.385Z,97777.28
2022-09-15T05:26:29.922Z,97778.03
2022-09-15T05:28:58.419Z,97788.78
2022-09-15T05:31:31.920Z,97787.69
2022-09-15T05:34:04.316Z,97790.31
2022-09-15T05:36:33.698Z,97791.56
2022-09-15T05:39:01.908Z,97796.91
2022-09-15T05:41:29.971Z,97795.13
2022-09-15T05:43:58.985Z,97784.19
2022-09-15T05:46:29.147Z,97790.31
2022-09-15T05:48:58.942Z,97787.16
2022-09-15T05:51:27.333Z,97791.41
2022-09-15T05:53:55.261Z,97788.47
2022-09-15T05:56:23.894Z,97784.94
2022-09-15T05:58:52.229Z,97790.03
2022-09-15T06:01:25.697Z,97787.56
2022-09-15T06:03:55.267Z,97782.34
2022-09-15T06:06:25.917Z,97793.28
2022-09-15T06:08:58.940Z,97783.06
2022-09-15T06:11:31.064Z,97771.78
2022-09-15T06:14:03.237Z,97774.88
2022-09-15T06:16:35.176Z,97792.56
2022-09-15T06:19:03.806Z,97781.34
2022-09-15T06:21:33.555Z,97789.22
2022-09-15T06:24:07.222Z,97792.78
2022-09-15T06:26:34.979Z,97780.06
2022-09-15T06:29:05.646Z,97784.88
2022-09-15T06:31:35.778Z,97794.22
2022-09-15T06:34:04.038Z,97795.97
2022-09-15T06:36:32.348Z,97803.63
2022-09-15T06:39:00.114Z,97789.75
2022-09-15T06:41:52.571Z,97794.38
2022-09-15T06:44:21.214Z,97813.44
2022-09-15T06:46:49.866Z,97800.91
2022-09-15T06:49:17.762Z,97812.44
2022-09-15T06:51:45.587Z,97822.00
2022-09-15T06:54:15.984Z,97820.53
2022-09-15T06:56:43.957Z,97814.19
2022-09-15T06:59:13.765Z,97815.28
2022-09-15T07:01:42.390Z,97830.25
2022-09-15T07:04:10.458Z,97829.63
2022-09-15T07:06:40.248Z,97837.69
2022-09-15T07:09:10.692Z,97833.53
2022-09-15T07:11:38.338Z,97832.09
2022-09-15T07:14:06.305Z,97838.28
2022-09-15T07:16:33.974Z,97837.03
2022-09-15T07:19:07.664Z,97845.25
2022-09-15T07:21:36.292Z,97840.13
2022-09-15T07:24:09.723Z,97844.28
2022-09-15T07:26:38.404Z,97844.63
2022-09-15T07:29:07.289Z,97845.78
2022-09-15T07:31:46.791Z,97846.13
2022-09-15T07:34:14.974Z,97849.84
2022-09-15T07:36:55.344Z,97855.66
2022-09-15T07:39:23.276Z,97858.84
2022-09-15T07:41:51.196Z,97854.28
2022-09-15T07:44:18.630Z,97857.19
2022-09-15T07:46:46.305Z,97864.63
2022-09-15T07:49:13.704Z,97862.59
2022-09-15T07:51:41.020Z,97867.81
2022-09-15T07:54:08.727Z,97862.38
2022-09-15T07:56:36.112Z,97867.94
2022-09-15T07:59:03.380Z,97865.72
2022-09-15T08:01:30.879Z,97870.44
2022-09-15T08:03:59.054Z,97879.81
2022-09-15T08:06:27.729Z,97872.03
2022-09-15T08:09:00.392Z,97868.38
2022-09-15T08:11:29.314Z,97869.88
2022-09-15T08:13:59.791Z,97880.41
2022-09-15T08:16:27.334Z,97876.97
2022-09-15T08:18:55.448Z,97881.78
2022-09-15T08:21:24.040Z,97879.59
2022-09-15T08:23:57.250Z,97883.50
2022-09-15T08:26:27.646Z,97879.78
2022-09-15T08:28:55.632Z,97883.16
2022-09-15T08:31:24.572Z,97886.91
2022-09-15T08:33:55.528Z,97889.41
2022-09-15T08:36:27.612Z,97893.78
2022-09-15T08:38:58.704Z,97893.44
2022-09-15T08:41:41.692Z,97895.34
2022-09-15T08:55:54.606Z,97907.53
2022-09-15T08:58:30.047Z,97908.66
2022-09-15T09:21:54.069Z,97915.94
2022-09-15T09:24:44.883Z,97908.47
2022-09-15T09:27:21.484Z,97909.75
2022-09-15T09:30:01.937Z,97913.31
2022-09-15T09:36:02.443Z,97910.47
2022-09-15T09:38:41.402Z,97912.06
2022-09-15T09:43:54.286Z,97911.84
2022-09-15T09:46:22.283Z,97913.28
2022-09-15T09:49:04.310Z,97903.56
2022-09-15T09:54:18.057Z,97906.69
2022-09-15T09:56:49.926Z,97891.41
2022-09-15T09:59:49.434Z,97893.13
2022-09-15T10:02:24.730Z,97891.97
2022-09-15T10:05:20.081Z,97875.72
2022-09-15T10:07:47.787Z,97877.72
2022-09-15T10:10:32.155Z,97871.63
2022-09-15T10:13:03.648Z,97874.78
2022-09-15T10:15:36.301Z,97873.97
2022-09-15T10:18:04.072Z,97867.66
2022-09-15T10:20:47.223Z,97876.94
2022-09-15T10:26:21.337Z,97861.66
2022-09-15T10:29:18.771Z,97899.50
2022-09-15T10:31:46.651Z,97898.06
2022-09-15T10:34:32.099Z,97900.78
2022-09-15T10:40:00.173Z,97891.47
2022-09-15T10:45:40.254Z,97900.06
2022-09-15T10:48:37.313Z,97897.28
2022-09-15T10:51:58.620Z,97912.44
2022-09-15T11:09:43.966Z,97926.47
2022-09-15T11:39:02.135Z,97967.28
2022-09-15T11:41:52.424Z,97976.63
2022-09-15T11:58:29.443Z,98005.91
2022-09-15T12:04:04.567Z,98021.03
2022-09-15T12:09:36.736Z,98016.31
2022-09-15T12:12:15.508Z,98028.44
2022-09-15T12:14:47.940Z,98034.16
2022-09-15T12:28:54.730Z,98054.56
2022-09-15T12:36:48.098Z,98068.72
2022-09-15T12:45:24.157Z,98083.22
2022-09-15T12:48:03.031Z,98074.34
2022-09-15T12:50:36.756Z,98082.97
2022-09-15T12:53:21.541Z,98075.19
2022-09-15T12:55:59.406Z,98079.97
2022-09-15T12:58:39.849Z,98086.59
2022-09-15T13:06:37.845Z,98089.34
2022-09-15T13:11:50.224Z,98095.22
2022-09-15T13:14:33.746Z,98089.47
2022-09-15T13:17:25.337Z,98087.13
2022-09-15T13:19:59.844Z,98092.00
2022-09-15T13:22:36.804Z,98099.34
2022-09-15T14:16:13.033Z,98123.03
2022-09-15T14:22:35.730Z,98118.72
2022-09-15T14:25:43.585Z,98122.47
2022-09-15T14:29:04.350Z,98119.63
2022-09-15T14:32:48.864Z,98123.84
2022-09-15T14:35:48.923Z,98128.97
2022-09-15T14:38:58.082Z,98127.06
2022-09-15T14:41:42.969Z,98125.94
2022-09-15T14:47:43.923Z,98122.97
2022-09-15T14:51:25.100Z,98118.31
2022-09-15T14:54:22.406Z,98118.22
2022-09-15T15:00:27.670Z,98124.06
2022-09-15T15:10:57.134Z,98127.63
2022-09-15T15:18:42.780Z,98126.09
2022-09-15T16:07:19.755Z,98129.44
2022-09-15T16:09:59.873Z,98140.97
2022-09-15T16:12:31.910Z,98140.00
2022-09-15T16:15:21.435Z,98129.03
2022-09-15T16:18:27.789Z,98133.19
2022-09-15T16:22:47.489Z,98128.47
2022-09-15T17:01:57.231Z,98153.09
2022-09-15T17:18:55.546Z,98168.63
2022-09-15T17:21:57.426Z,98167.50
2022-09-15T17:29:11.226Z,98168.59
2022-09-15T17:32:06.322Z,98171.75
2022-09-15T17:34:52.624Z,98176.38
2022-09-15T17:37:33.966Z,98173.22
2022-09-15T17:43:29.712Z,98171.16
2022-09-15T17:46:29.614Z,98183.00
2022-09-15T17:49:06.677Z,98176.94
2022-09-15T17:51:57.036Z,98172.63
2022-09-15T17:54:48.669Z,98173.94
2022-09-15T17:58:01.707Z,98173.09
2022-09-15T18:01:18.945Z,98176.09
2022-09-15T18:04:30.609Z,98172.19
2022-09-15T18:10:59.156Z,98173.56
2022-09-15T18:14:00.322Z,98186.25
2022-09-15T18:17:17.488Z,98184.00
2022-09-15T18:20:16.442Z,98188.69
2022-09-15T18:23:28.697Z,98191.22
2022-09-15T18:26:46.679Z,98192.66
2022-09-15T18:29:44.531Z,98195.88
2022-09-15T18:32:17.879Z,98189.53
2022-09-15T18:34:59.140Z,98201.53
2022-09-15T18:37:59.459Z,98205.59
2022-09-15T18:40:49.177Z,98206.63
2022-09-15T18:44:34.845Z,98218.88
2022-09-15T18:47:21.473Z,98217.16
2022-09-15T18:50:11.129Z,98220.38
2022-09-15T18:53:03.000Z,98219.97
2022-09-15T18:55:48.680Z,98224.78
2022-09-15T18:58:58.186Z,98230.28
2022-09-15T19:01:56.897Z,98225.06
2022-09-15T19:04:52.222Z,98228.59
2022-09-15T19:07:49.112Z,98227.19
2022-09-15T19:10:35.774Z,98223.03
2022-09-15T19:13:40.012Z,98222.63
2022-09-15T19:16:57.930Z,98219.06
2022-09-15T19:20:01.389Z,98226.53
2022-09-15T19:22:45.303Z,98220.38
2022-09-15T19:26:07.606Z,98227.81
2022-09-15T19:28:54.527Z,98239.28
2022-09-15T19:31:43.430Z,98229.41
2022-09-15T19:34:23.600Z,98230.53
2022-09-15T19:37:22.575Z,98231.97
2022-09-15T19:40:04.996Z,98237.47
2022-09-15T19:42:46.811Z,98240.88
2022-09-15T19:45:46.294Z,98237.25
2022-09-15T19:48:13.674Z,98247.78
2022-09-15T19:50:44.369Z,98249.84
2022-09-15T19:53:11.837Z,98247.28
2022-09-15T19:55:39.234Z,98241.47
2022-09-15T19:58:06.782Z,98240.28
2022-09-15T20:00:34.112Z,98250.25
2022-09-15T20:03:01.560Z,98244.84
2022-09-15T20:05:29.261Z,98245.66
2022-09-15T20:07:58.123Z,98248.38
2022-09-15T20:10:25.443Z,98248.13
2022-09-15T20:12:52.850Z,98243.59
2022-09-15T20:15:20.389Z,98250.78
2022-09-15T20:17:47.690Z,98252.25
2022-09-15T20:20:15.144Z,98256.31
2022-09-15T20:22:42.513Z,98256.88
2022-09-15T20:25:09.816Z,98253.22
2022-09-15T20:27:38.182Z,98257.31
2022-09-15T20:30:07.763Z,98253.06
2022-09-15T20:32:35.611Z,98263.44
2022-09-15T20:35:03.549Z,98256.25
2022-09-15T20:37:35.259Z,98256.91
2022-09-15T20:40:09.790Z,98261.78
2022-09-15T20:42:37.124Z,98253.72
2022-09-15T20:45:08.737Z,98251.53
2022-09-15T20:47:36.493Z,98253.81
2022-09-15T20:50:04.147Z,98251.53
2022-09-15T20:52:37.406Z,98251.19
2022-09-15T20:55:10.820Z,98263.13
2022-09-15T20:57:38.180Z,98260.69
2022-09-15T21:00:08.061Z,98256.13
2022-09-15T21:02:35.718Z,98263.25
2022-09-15T21:05:03.501Z,98267.00
2022-09-15T21:07:31.573Z,98266.75
2022-09-15T21:09:58.857Z,98264.69
2022-09-15T21:12:26.295Z,98265.63
2022-09-15T21:14:53.570Z,98261.41
2022-09-15T21:17:21.800Z,98268.22
2022-09-15T21:19:49.229Z,98270.84
2022-09-15T21:22:16.491Z,98267.41
2022-09-15T21:24:43.826Z,98271.31
2022-09-15T21:27:26.974Z,98270.13
2022-09-15T21:29:54.788Z,98257.03
2022-09-15T21:32:22.227Z,98272.66
2022-09-15T21:34:49.523Z,98281.63
2022-09-15T21:37:16.847Z,98277.81
2022-09-15T21:39:44.231Z,98289.06
2022-09-15T21:42:12.963Z,98294.66
2022-09-15T21:44:40.257Z,98298.09
2022-09-15T21:47:07.517Z,98287.13
2022-09-15T21:49:34.809Z,98293.88
2022-09-15T21:52:02.595Z,98287.38
2022-09-15T21:54:31.499Z,98291.47
2022-09-15T21:56:59.017Z,98297.84
2022-09-15T21:59:26.454Z,98287.53
2022-09-15T22:01:54.381Z,98286.75
2022-09-15T22:04:21.762Z,98290.50
2022-09-15T22:06:50.203Z,98296.94
2022-09-15T22:09:22.533Z,98294.34
2022-09-15T22:11:49.808Z,98289.22
2022-09-15T22:14:17.222Z,98295.66
2022-09-15T22:16:44.695Z,98291.97
2022-09-15T22:19:12.778Z,98289.00
2022-09-15T22:21:41.905Z,98292.41
2022-09-15T22:24:13.586Z,98286.66
2022-09-15T22:26:43.355Z,98293.44
2022-09-15T22:29:11.493Z,98299.88
2022-09-15T22:31:38.977Z,98296.72
2022-09-15T22:34:06.401Z,98301.47
2022-09-15T22:36:34.505Z,98295.56
2022-09-15T22:39:05.241Z,98298.13
2022-09-15T22:41:38.691Z,98293.38
2022-09-15T22:44:17.782Z,98294.47
2022-09-15T22:46:45.516Z,98299.47
2022-09-15T22:49:12.799Z,98296.41
2022-09-15T22:51:40.157Z,98301.97
2022-09-15T22:54:07.560Z,98300.03
2022-09-15T22:56:34.893Z,98294.97
2022-09-15T22:59:02.649Z,98293.88
2022-09-15T23:01:31.071Z,98296.09
2022-09-15T23:04:02.356Z,98293.41
2022-09-15T23:06:33.899Z,98300.97
2022-09-15T23:09:08.223Z,98295.63
2022-09-15T23:11:39.807Z,98294.22
2022-09-15T23:14:15.275Z,98293.66
2022-09-15T23:16:44.213Z,98298.56
2022-09-15T23:19:13.626Z,98298.56
2022-09-15T23:21:41.346Z,98296.84
2022-09-15T23:24:08.784Z,98300.91
2022-09-15T23:26:36.551Z,98300.47
2022-09-15T23:29:03.847Z,98297.66
2022-09-15T23:31:31.250Z,98284.66
2022-09-15T23:33:58.596Z,98286.94
2022-09-15T23:36:25.914Z,98285.09
2022-09-15T23:38:53.340Z,98286.13
2022-09-15T23:41:20.843Z,98286.56
2022-09-15T23:43:48.266Z,98293.88
2022-09-15T23:46:16.135Z,98282.94
2022-09-15T23:48:43.847Z,98287.81
2022-09-15T23:51:11.361Z,98289.09
2022-09-15T23:53:38.834Z,98294.66
2022-09-15T23:56:06.512Z,98284.63
2022-09-15T23:58:33.983Z,98284.63
